Time;durP1;ratioP1;P1;durP2;ratioP2;P2;SDS_P1;SDS_P2;PMS_P1;PMS_P2;Temp;Humidity;BMP_temperature;BMP_pressure;BME280_temperature;BME280_humidity;BME280_pressure;Samples;Min_cycle;Max_cycle;Signal;HPM_P1;HPM_P2
2022/06/05 00:02:35;;;;;;;16.60;8.73;;;;;;;24.72;73.96;99878.09;5064556;28;20091;-74
2022/06/05 00:05:20;;;;;;;16.63;9.20;;;;;;;24.74;74.02;99878.66;5083225;28;20082;-74
2022/06/05 00:08:24;;;;;;;14.88;9.02;;;;;;;24.60;74.03;99863.84;5083051;28;20032;-73
2022/06/05 00:10:58;;;;;;;16.00;8.82;;;;;;;24.50;74.41;99869.13;5056857;28;20055;-74
2022/06/05 00:13:36;;;;;;;;;;;;;;;24.60;73.69;99871.16;5081291;28;20436;-73
2022/06/05 00:16:01;;;;;;;16.08;7.93;;;;;;;24.54;73.23;99874.84;5080809;28;20147;-73
2022/06/05 00:18:32;;;;;;;17.08;8.98;;;;;;;24.57;73.61;99869.75;5082064;28;20036;-73
2022/06/05 00:20:57;;;;;;;10.10;8.43;;;;;;;24.58;73.41;99878.69;5082705;28;20085;-73
2022/06/05 00:23:23;;;;;;;13.77;8.60;;;;;;;24.60;73.52;99877.38;5080699;28;20036;-73
2022/06/05 00:25:57;;;;;;;13.63;9.15;;;;;;;24.56;73.68;99886.25;5082119;28;20028;-74
2022/06/05 00:28:34;;;;;;;17.67;9.43;;;;;;;24.54;73.54;99886.50;5082480;28;20036;-73
2022/06/05 00:30:59;;;;;;;17.83;9.02;;;;;;;24.42;74.58;99888.50;5082511;28;20401;-73
2022/06/05 00:33:40;;;;;;;17.88;9.02;;;;;;;24.46;74.55;99885.03;5081103;28;20040;-73
2022/06/05 00:36:28;;;;;;;15.15;9.00;;;;;;;24.50;74.17;99886.19;5080234;28;20342;-73
2022/06/05 00:39:12;;;;;;;13.30;9.10;;;;;;;24.57;73.18;99888.72;5084454;28;20037;-73
2022/06/05 00:42:01;;;;;;;11.85;8.65;;;;;;;24.54;73.68;99897.34;5085934;28;20036;-73
2022/06/05 00:44:30;;;;;;;11.82;8.70;;;;;;;24.46;73.37;99890.47;5084428;28;20307;-73
2022/06/05 00:46:57;;;;;;;15.75;8.63;;;;;;;24.36;73.32;99882.19;5085872;28;20051;-73
2022/06/05 00:49:29;;;;;;;11.15;7.97;;;;;;;24.43;72.79;99890.97;5085909;28;20021;-73
2022/06/05 00:51:54;;;;;;;16.08;8.57;;;;;;;24.40;73.86;99885.22;5084978;28;20028;-73
2022/06/05 00:54:20;;;;;;;14.73;8.85;;;;;;;24.47;73.69;99886.69;5084318;28;20029;-73
2022/06/05 00:56:45;;;;;;;12.70;8.48;;;;;;;24.44;74.08;99887.19;5083162;28;20048;-74
2022/06/05 00:59:12;;;;;;;17.73;8.70;;;;;;;24.49;72.38;99879.13;5084253;28;20024;-74
2022/06/05 01:01:40;;;;;;;18.98;8.43;;;;;;;24.36;73.73;99870.56;5085562;28;20321;-74
2022/06/05 01:04:06;;;;;;;11.95;8.82;;;;;;;24.33;73.97;99871.06;5099730;28;20043;-73
2022/06/05 01:06:31;;;;;;;15.27;8.75;;;;;;;24.32;73.61;99872.13;5104612;28;20040;-73
2022/06/05 01:08:57;;;;;;;16.38;8.35;;;;;;;24.25;73.71;99872.25;5104717;28;20032;-73
2022/06/05 01:11:22;;;;;;;20.20;8.85;;;;;;;24.31;72.97;99882.13;5105101;28;20073;-73
2022/06/05 01:14:22;;;;;;;16.70;8.95;;;;;;;24.31;73.38;99876.72;5104708;28;20071;-73
2022/06/05 01:17:26;;;;;;;16.98;8.63;;;;;;;24.28;73.14;99874.50;5080080;28;20023;-73
2022/06/05 01:19:58;;;;;;;10.85;8.27;;;;;;;24.20;73.54;99880.31;5073299;28;20150;-73
2022/06/05 01:23:08;;;;;;;16.10;8.50;;;;;;;24.17;73.71;99878.91;5104428;28;20016;-73
2022/06/05 01:25:36;;;;;;;12.10;8.35;;;;;;;24.17;74.00;99880.78;5102728;28;20235;-73
2022/06/05 01:28:17;;;;;;;13.52;8.60;;;;;;;24.21;73.58;99884.66;5104334;28;20043;-73
2022/06/05 01:31:18;;;;;;;10.07;7.72;;;;;;;24.20;73.56;99878.41;5097675;28;20081;-73
2022/06/05 01:34:07;;;;;;;15.80;8.48;;;;;;;24.19;72.48;99873.25;5071649;28;20047;-74
2022/06/05 01:36:42;;;;;;;15.07;8.98;;;;;;;24.15;72.68;99877.53;5103396;28;20346;-73
2022/06/05 01:39:17;;;;;;;17.05;8.77;;;;;;;23.88;74.51;99874.63;5103017;28;20028;-73
2022/06/05 01:41:52;;;;;;;17.83;7.97;;;;;;;23.91;74.71;99882.25;5080542;28;20107;-73
2022/06/05 01:44:26;;;;;;;16.73;8.35;;;;;;;23.91;74.22;99887.66;5103753;28;20028;-73
2022/06/05 01:46:52;;;;;;;12.32;8.80;;;;;;;23.88;74.48;99888.16;5104072;28;20039;-73
2022/06/05 01:49:31;;;;;;;12.73;8.00;;;;;;;23.94;74.49;99887.19;5103199;28;20028;-74
2022/06/05 01:52:02;;;;;;;13.65;8.10;;;;;;;23.96;73.95;99890.47;5103839;28;20039;-73
2022/06/05 01:54:37;;;;;;;11.95;8.50;;;;;;;24.05;73.65;99882.78;5097364;28;20306;-73
2022/06/05 01:57:06;;;;;;;16.45;8.52;;;;;;;24.05;73.33;99882.78;5082392;28;20048;-73
2022/06/05 01:59:40;;;;;;;14.88;8.25;;;;;;;24.02;73.36;99881.38;5084424;28;20031;-73
2022/06/05 02:02:13;;;;;;;12.70;8.27;;;;;;;23.96;73.09;99881.56;5084855;28;20027;-73
2022/06/05 02:04:45;;;;;;;15.23;7.77;;;;;;;23.89;73.33;99881.69;5081967;28;20036;-73
2022/06/05 02:07:17;;;;;;;17.33;9.18;;;;;;;23.91;72.90;99884.13;5083104;28;20036;-73
2022/06/05 02:09:58;;;;;;;19.88;8.48;;;;;;;23.81;73.18;99876.69;5082901;28;20337;-73
2022/06/05 02:12:24;;;;;;;17.63;8.93;;;;;;;23.74;73.87;99893.06;5082129;28;20051;-73
2022/06/05 02:14:50;;;;;;;18.42;9.43;;;;;;;23.69;74.81;99895.69;5065077;28;20210;-73
2022/06/05 02:17:15;;;;;;;15.00;9.95;;;;;;;23.57;75.51;99889.53;5083455;28;20048;-73
2022/06/05 02:19:42;;;;;;;15.18;10.20;;;;;;;23.67;75.40;99894.28;5081872;28;20024;-73
2022/06/05 02:22:21;;;;;;;16.30;9.95;;;;;;;23.64;75.43;99883.97;5085173;28;20346;-73
2022/06/05 02:24:47;;;;;;;12.43;8.95;;;;;;;23.47;76.23;99879.31;5083447;28;20043;-73
2022/06/05 02:27:13;;;;;;;17.00;9.90;;;;;;;23.51;75.83;99874.25;5082635;28;20028;-73
2022/06/05 02:29:39;;;;;;;19.20;9.80;;;;;;;23.58;74.24;99871.41;5083696;28;20029;-73
2022/06/05 02:32:05;;;;;;;18.42;8.88;;;;;;;23.45;74.59;99865.22;5081510;28;20383;-73
2022/06/05 02:34:45;;;;;;;20.48;9.13;;;;;;;23.28;75.97;99883.28;5082934;28;20033;-73
2022/06/05 02:37:26;;;;;;;15.55;9.07;;;;;;;23.41;75.32;99879.47;5083436;28;20059;-73
2022/06/05 02:39:54;;;;;;;17.13;9.77;;;;;;;23.48;74.75;99882.84;5083386;28;20431;-73
2022/06/05 02:42:32;;;;;;;15.07;9.07;;;;;;;23.36;74.99;99882.09;5081516;28;20223;-73
2022/06/05 02:45:17;;;;;;;15.13;8.90;;;;;;;23.41;74.76;99880.28;5081143;28;20097;-73
2022/06/05 02:48:05;;;;;;;17.85;9.15;;;;;;;23.53;74.04;99886.44;5083013;28;20048;-73
2022/06/05 02:50:57;;;;;;;19.13;9.23;;;;;;;23.43;74.43;99883.56;5083890;28;20058;-73
2022/06/05 02:53:23;;;;;;;15.65;8.82;;;;;;;23.51;73.84;99895.88;5082034;28;20070;-73
2022/06/05 02:55:48;;;;;;;15.52;9.52;;;;;;;23.59;73.59;99890.09;5082543;28;20031;-74
2022/06/05 02:58:14;;;;;;;13.65;8.68;;;;;;;23.60;73.05;99893.63;5082677;28;20044;-73
2022/06/05 03:03:27;;;;;;;14.88;8.27;;;;;;;23.58;73.46;99885.75;5081496;28;20025;-73
2022/06/05 03:03:29;;;;;;;23.92;8.93;;;;;;;23.53;73.28;99883.75;5082312;28;20060;-73
2022/06/05 03:05:54;;;;;;;16.20;8.88;;;;;;;23.54;73.20;99895.38;5088691;28;20028;-74
2022/06/05 03:08:20;;;;;;;15.80;9.60;;;;;;;23.51;73.57;99890.47;5084978;28;20497;-73
2022/06/05 03:10:46;;;;;;;12.73;8.13;;;;;;;23.50;74.35;99894.22;5066613;28;20046;-73
2022/06/05 03:13:13;;;;;;;24.75;10.02;;;;;;;23.53;73.96;99872.94;5082569;28;20024;-73
2022/06/05 03:15:41;;;;;;;16.60;8.85;;;;;;;23.55;73.88;99884.34;5082472;28;20101;-73
2022/06/05 03:18:06;;;;;;;18.55;9.55;;;;;;;23.55;74.15;99892.47;5081610;28;20032;-74
2022/06/05 03:20:33;;;;;;;31.27;9.45;;;;;;;23.65;73.59;99882.91;5083067;28;20348;-73
2022/06/05 03:22:59;;;;;;;22.35;9.75;;;;;;;23.65;73.29;99875.59;5081337;28;20040;-73
2022/06/05 03:25:25;;;;;;;21.73;9.73;;;;;;;23.78;72.67;99893.41;5082607;28;20039;-74
2022/06/05 03:27:52;;;;;;;19.45;9.52;;;;;;;23.79;72.86;99887.75;5082341;28;20579;-73
2022/06/05 03:30:17;;;;;;;19.50;9.65;;;;;;;23.75;72.90;99880.38;5080952;28;20074;-73
2022/06/05 03:32:44;;;;;;;26.65;10.20;;;;;;;23.64;73.66;99897.47;5080304;28;20357;-74
2022/06/05 03:35:11;;;;;;;17.90;10.35;;;;;;;23.76;73.16;99888.22;5081961;28;20021;-74
2022/06/05 03:37:37;;;;;;;22.30;10.52;;;;;;;23.74;73.03;99881.44;5082895;28;20599;-73
2022/06/05 03:40:08;;;;;;;24.48;11.40;;;;;;;23.73;73.29;99882.50;5082265;28;20028;-73
2022/06/05 03:42:34;;;;;;;17.83;10.45;;;;;;;23.79;73.77;99879.63;5085743;28;20269;-74
2022/06/05 03:44:59;;;;;;;20.33;10.80;;;;;;;23.56;74.28;99883.28;5082286;28;20036;-74
2022/06/05 03:47:25;;;;;;;14.73;10.52;;;;;;;23.45;74.71;99888.72;5100091;28;20036;-73
2022/06/05 03:49:50;;;;;;;18.38;10.35;;;;;;;23.43;75.12;99880.03;5099861;28;20039;-73
2022/06/05 03:52:15;;;;;;;14.70;10.07;;;;;;;23.43;75.64;99878.16;5083042;28;20028;-73
2022/06/05 03:54:41;;;;;;;17.13;10.27;;;;;;;23.49;75.25;99854.75;5081633;28;20193;-73
2022/06/05 03:57:07;;;;;;;14.85;11.02;;;;;;;23.34;76.42;99865.28;5081878;28;20040;-74
2022/06/05 03:59:35;;;;;;;17.10;10.85;;;;;;;23.55;75.81;99875.44;5082016;28;20040;-73
2022/06/05 04:02:01;;;;;;;17.73;11.02;;;;;;;23.85;75.13;99859.72;5081731;28;20032;-73
2022/06/05 04:04:26;;;;;;;17.92;11.30;;;;;;;24.09;73.89;99857.69;5082616;28;20040;-73
2022/06/05 04:06:52;;;;;;;18.10;10.50;;;;;;;24.21;73.22;99860.28;5081693;28;20109;-74
2022/06/05 04:09:17;;;;;;;18.60;10.95;;;;;;;24.44;72.78;99860.13;5081816;28;20036;-73
2022/06/05 04:11:43;;;;;;;22.13;12.15;;;;;;;24.51;72.73;99865.34;5086261;28;20043;-73
2022/06/05 04:14:08;;;;;;;22.42;11.05;;;;;;;24.50;73.13;99869.13;5083433;28;20119;-73
2022/06/05 04:16:36;;;;;;;23.38;11.50;;;;;;;24.33;73.81;99871.06;5084026;28;20034;-74
2022/06/05 04:19:03;;;;;;;24.95;11.38;;;;;;;24.28;73.84;99871.78;5085013;28;20032;-73
2022/06/05 04:21:32;;;;;;;21.85;11.32;;;;;;;24.49;73.56;99859.38;5087219;28;20108;-74
2022/06/05 04:23:58;;;;;;;22.13;11.63;;;;;;;24.62;73.07;99850.06;5085593;28;20040;-73
2022/06/05 04:26:26;;;;;;;17.67;11.13;;;;;;;24.75;72.48;99845.09;5066957;28;20028;-73
2022/06/05 04:28:55;;;;;;;18.10;10.93;;;;;;;24.79;72.89;99839.97;5083772;28;20108;-73
2022/06/05 04:31:26;;;;;;;19.33;11.25;;;;;;;25.26;71.38;99834.06;5083974;28;20396;-73
2022/06/05 04:33:53;;;;;;;17.45;11.02;;;;;;;25.76;69.01;99828.28;5085975;28;20043;-74
2022/06/05 04:36:19;;;;;;;16.42;10.80;;;;;;;25.78;68.31;99836.97;5084284;28;20230;-73
2022/06/05 04:38:46;;;;;;;17.50;10.82;;;;;;;25.69;68.68;99831.22;5086876;28;20354;-73
2022/06/05 04:41:12;;;;;;;16.88;11.70;;;;;;;26.11;67.31;99835.88;5085970;28;20056;-74
2022/06/05 04:43:38;;;;;;;15.85;11.50;;;;;;;26.34;65.84;99837.41;5084719;28;20047;-73
2022/06/05 04:46:04;;;;;;;15.88;11.73;;;;;;;26.27;65.76;99850.38;5100971;28;20020;-74
2022/06/05 04:48:30;;;;;;;17.45;10.98;;;;;;;26.61;64.71;99851.66;5103726;28;20035;-74
2022/06/05 04:50:56;;;;;;;24.05;13.02;;;;;;;26.65;64.00;99855.50;5088784;28;20250;-74
2022/06/05 04:53:21;;;;;;;15.60;11.95;;;;;;;26.76;64.18;99847.38;5084936;28;20031;-74
2022/06/05 04:55:47;;;;;;;19.58;12.13;;;;;;;26.98;62.76;99832.53;5085538;28;20033;-74
2022/06/05 04:58:12;;;;;;;15.48;11.40;;;;;;;26.87;63.72;99817.28;5085297;28;20063;-74
2022/06/05 05:00:38;;;;;;;22.50;12.50;;;;;;;27.48;61.90;99841.91;5085724;28;20176;-74
2022/06/05 05:03:04;;;;;;;16.88;12.40;;;;;;;27.96;60.25;99847.91;5084833;28;20055;-74
2022/06/05 05:05:30;;;;;;;19.27;12.00;;;;;;;28.31;59.27;99846.28;5102209;28;20333;-74
2022/06/05 05:07:55;;;;;;;19.92;11.82;;;;;;;28.34;58.31;99835.66;5103433;28;20062;-74
2022/06/05 05:10:20;;;;;;;17.55;10.73;;;;;;;28.43;58.21;99825.00;5086666;28;20028;-74
2022/06/05 05:12:46;;;;;;;17.30;10.15;;;;;;;28.63;58.07;99826.84;5084379;28;20024;-74
2022/06/05 05:15:11;;;;;;;18.02;10.18;;;;;;;28.85;56.68;99827.31;5085672;28;20054;-74
2022/06/05 05:17:37;;;;;;;13.85;9.27;;;;;;;28.60;56.17;99837.19;5085687;28;20040;-74
2022/06/05 05:20:03;;;;;;;13.68;9.02;;;;;;;28.45;56.97;99839.16;5084562;28;20028;-73
2022/06/05 05:22:29;;;;;;;12.35;8.18;;;;;;;28.81;55.57;99824.31;5085069;28;20044;-74
2022/06/05 05:24:54;;;;;;;11.43;7.95;;;;;;;29.11;54.61;99830.72;5082863;28;20051;-74
2022/06/05 05:27:20;;;;;;;13.65;8.18;;;;;;;29.27;53.59;99832.28;5085288;28;20044;-74
2022/06/05 05:29:46;;;;;;;15.25;8.70;;;;;;;29.31;53.72;99825.16;5085058;28;20381;-74
2022/06/05 05:32:11;;;;;;;13.02;8.23;;;;;;;29.38;53.69;99822.91;5085267;28;20349;-73
2022/06/05 05:34:38;;;;;;;10.45;8.00;;;;;;;29.31;54.21;99821.59;5085241;28;20028;-74
2022/06/05 05:37:04;;;;;;;10.95;7.55;;;;;;;29.44;53.42;99818.28;5083694;28;20036;-74
2022/06/05 05:42:14;;;;;;;13.23;7.72;;;;;;;28.87;55.05;99825.13;5084043;28;20035;-73
2022/06/05 05:44:48;;;;;;;12.70;7.88;;;;;;;29.34;52.97;99821.03;5084187;28;20039;-74
2022/06/05 05:47:17;;;;;;;13.70;8.48;;;;;;;28.75;55.28;99819.16;5083234;28;20035;-73
2022/06/05 05:49:43;;;;;;;12.50;8.63;;;;;;;28.67;56.13;99815.09;5085684;28;20067;-74
2022/06/05 05:52:09;;;;;;;12.25;7.82;;;;;;;28.75;55.31;99814.53;5084253;28;20036;-74
2022/06/05 05:54:35;;;;;;;16.02;8.38;;;;;;;28.14;56.31;99809.25;5083987;28;20373;-74
2022/06/05 05:57:01;;;;;;;16.95;7.60;;;;;;;28.05;56.66;99821.78;5083651;28;20064;-74
2022/06/05 05:59:26;;;;;;;12.00;7.20;;;;;;;28.17;55.47;99810.63;5084643;28;20035;-74
2022/06/05 06:01:52;;;;;;;12.68;6.75;;;;;;;28.75;53.95;99813.72;5087722;28;20036;-74
2022/06/05 06:04:18;;;;;;;11.02;6.07;;;;;;;28.73;53.17;99824.06;5084619;28;20341;-74
2022/06/05 06:06:45;;;;;;;13.35;6.30;;;;;;;29.20;50.50;99823.59;5084738;28;20055;-74
2022/06/05 06:09:11;;;;;;;20.05;5.90;;;;;;;29.30;49.44;99822.72;5084335;28;20028;-74
2022/06/05 06:11:37;;;;;;;11.07;5.50;;;;;;;29.21;49.38;99812.41;5082817;28;20067;-74
2022/06/05 06:14:03;;;;;;;11.13;5.72;;;;;;;29.29;48.60;99810.97;5084593;28;20089;-74
2022/06/05 06:16:29;;;;;;;11.45;5.55;;;;;;;30.12;47.93;99808.13;5084492;28;20055;-74
2022/06/05 06:18:56;;;;;;;9.80;5.53;;;;;;;30.66;45.78;99797.97;5083811;28;20384;-74
2022/06/05 06:21:23;;;;;;;29.00;6.28;;;;;;;30.65;45.47;99808.09;5083412;28;20039;-74
2022/06/05 06:23:49;;;;;;;9.82;5.40;;;;;;;31.04;44.87;99801.56;5082980;28;20059;-74
2022/06/05 06:26:16;;;;;;;11.70;5.80;;;;;;;31.44;44.70;99795.50;5088159;28;20207;-74
2022/06/05 06:28:41;;;;;;;13.63;5.43;;;;;;;31.65;43.50;99798.72;5083199;28;20034;-71
2022/06/05 06:31:09;;;;;;;12.65;7.45;;;;;;;31.62;43.73;99804.78;5064867;28;20025;-74
2022/06/05 06:33:35;;;;;;;14.85;6.53;;;;;;;31.01;44.90;99793.94;5084363;28;20028;-74
2022/06/05 06:36:07;;;;;;;14.48;9.35;;;;;;;30.89;44.76;99788.09;5082423;28;20217;-74
2022/06/05 06:38:33;;;;;;;10.88;6.15;;;;;;;30.88;46.27;99800.97;5083433;28;20032;-74
2022/06/05 06:41:17;;;;;;;9.85;5.97;;;;;;;31.14;45.09;99801.41;5084680;28;20043;-74
2022/06/05 06:43:44;;;;;;;8.48;6.07;;;;;;;31.11;44.42;99794.59;5081319;28;20052;-74
2022/06/05 06:46:10;;;;;;;6.07;5.43;;;;;;;31.12;44.68;99784.47;5081783;28;20078;-74
2022/06/05 06:48:36;;;;;;;12.00;5.85;;;;;;;31.60;42.99;99787.03;5083703;28;20139;-74
2022/06/05 06:51:03;;;;;;;13.50;5.90;;;;;;;31.90;43.03;99777.50;5083548;28;20032;-74
2022/06/05 06:53:30;;;;;;;13.43;5.93;;;;;;;31.84;43.00;99782.25;5082975;28;20047;-74
2022/06/05 06:55:56;;;;;;;16.83;5.88;;;;;;;32.02;42.22;99770.41;5096801;28;20036;-73
2022/06/05 06:58:22;;;;;;;11.82;5.22;;;;;;;32.12;42.18;99769.41;5101277;28;20097;-74
2022/06/05 07:00:47;;;;;;;10.48;5.80;;;;;;;32.40;41.98;99770.28;5086244;28;20032;-73
2022/06/05 07:03:13;;;;;;;15.32;5.72;;;;;;;32.69;40.88;99767.19;5083388;28;20036;-73
2022/06/05 07:05:39;;;;;;;9.48;5.47;;;;;;;32.59;40.85;99764.66;5082239;28;20028;-74
2022/06/05 07:08:06;;;;;;;9.32;5.75;;;;;;;33.24;39.52;99761.53;5083720;28;20032;-74
2022/06/05 07:10:32;;;;;;;9.20;5.40;;;;;;;33.34;39.41;99760.53;5083943;28;20028;-74
2022/06/05 07:12:57;;;;;;;14.02;5.88;;;;;;;33.17;39.85;99761.97;5082892;28;20037;-73
2022/06/05 07:15:23;;;;;;;11.70;5.25;;;;;;;33.69;37.65;99743.16;5085527;28;20054;-73
2022/06/05 07:17:49;;;;;;;20.60;6.32;;;;;;;33.96;36.51;99755.91;5082225;28;20037;-74
2022/06/05 07:20:15;;;;;;;13.50;5.85;;;;;;;34.09;35.92;99746.75;5084695;28;20316;-74
2022/06/05 07:22:41;;;;;;;12.35;5.68;;;;;;;34.20;35.89;99744.53;5082214;28;20036;-73
2022/06/05 07:25:07;;;;;;;8.77;4.50;;;;;;;34.20;35.27;99745.31;5082617;28;20108;-72
2022/06/05 07:27:32;;;;;;;10.95;5.28;;;;;;;34.38;35.07;99740.75;5082964;28;20097;-71
2022/06/05 07:29:58;;;;;;;9.10;4.90;;;;;;;33.66;36.56;99745.72;5080670;28;20321;-72
2022/06/05 07:32:24;;;;;;;15.88;5.80;;;;;;;33.75;36.36;99738.34;5083146;28;20170;-74
2022/06/05 07:34:49;;;;;;;10.23;5.50;;;;;;;33.70;36.45;99730.22;5083038;28;20038;-74
2022/06/05 07:37:15;;;;;;;13.55;6.07;;;;;;;33.34;37.14;99735.84;5081768;28;20036;-73
2022/06/05 07:39:42;;;;;;;9.57;4.80;;;;;;;33.59;37.12;99726.94;5083611;28;20115;-74
2022/06/05 07:42:08;;;;;;;13.75;5.88;;;;;;;34.10;36.00;99740.13;5081711;28;20032;-74
2022/06/05 07:44:36;;;;;;;18.02;6.10;;;;;;;34.45;35.99;99735.59;5084381;28;20038;-73
2022/06/05 07:47:07;;;;;;;11.23;6.03;;;;;;;34.55;36.27;99735.28;5081742;28;20032;-74
2022/06/05 07:49:34;;;;;;;13.18;5.55;;;;;;;34.77;35.88;99733.53;5084690;28;20306;-74
2022/06/05 07:54:44;;;;;;;14.38;5.90;;;;;;;35.01;34.55;99730.31;5086369;28;20028;-72
2022/06/05 07:57:13;;;;;;;11.50;5.80;;;;;;;34.32;37.36;99730.16;5084315;28;20330;-72
2022/06/05 07:59:41;;;;;;;12.95;5.70;;;;;;;34.68;36.31;99721.72;5084765;28;20040;-72
2022/06/05 08:02:11;;;;;;;7.35;5.35;;;;;;;35.11;34.51;99725.28;5086871;28;20027;-71
2022/06/05 08:04:37;;;;;;;18.85;5.80;;;;;;;35.44;34.42;99722.84;5085202;28;20255;-72
2022/06/05 08:07:05;;;;;;;15.88;6.00;;;;;;;35.45;34.31;99718.16;5086077;28;20103;-72
2022/06/05 08:09:32;;;;;;;11.88;5.78;;;;;;;35.60;34.81;99725.88;5085631;28;20122;-75
2022/06/05 08:11:58;;;;;;;9.80;5.60;;;;;;;35.68;34.59;99729.75;5087137;28;20056;-72
2022/06/05 08:14:24;;;;;;;13.60;5.90;;;;;;;35.82;33.80;99730.38;5087031;28;20118;-72
2022/06/05 08:16:50;;;;;;;22.17;6.55;;;;;;;35.41;34.58;99718.00;5085539;28;20028;-71
2022/06/05 08:19:21;;;;;;;11.98;5.70;;;;;;;35.73;35.04;99724.06;5087242;28;20334;-72
2022/06/05 08:21:47;;;;;;;12.40;5.78;;;;;;;35.98;34.20;99714.09;5085638;28;20344;-72
2022/06/05 08:24:13;;;;;;;8.95;5.75;;;;;;;36.02;34.23;99715.06;5085682;28;20326;-72
2022/06/05 08:26:38;;;;;;;13.75;5.88;;;;;;;35.71;34.74;99720.81;5084906;28;20074;-72
2022/06/05 08:29:05;;;;;;;16.75;5.65;;;;;;;35.95;34.60;99712.00;5084176;28;20021;-72
2022/06/05 08:31:31;;;;;;;8.75;5.80;;;;;;;35.95;34.52;99710.06;5084463;28;20079;-72
2022/06/05 08:33:58;;;;;;;15.98;5.80;;;;;;;36.24;34.26;99706.50;5086204;28;20043;-72
2022/06/05 08:36:24;;;;;;;11.40;5.90;;;;;;;35.55;34.59;99692.22;5067744;28;20020;-72
2022/06/05 08:42:13;;;;;;;12.68;5.82;;;;;;;35.70;34.44;99692.47;5086084;28;20042;-72
2022/06/05 08:44:41;;;;;;;13.95;5.95;;;;;;;35.41;35.17;99701.47;5084756;28;20029;-71
2022/06/05 08:47:21;;;;;;;12.38;5.88;;;;;;;35.88;35.50;99696.00;5085041;28;20103;-72
2022/06/05 08:49:50;;;;;;;8.20;5.63;;;;;;;35.76;34.98;99701.38;5085536;28;20102;-72
2022/06/05 08:52:29;;;;;;;8.77;5.78;;;;;;;35.73;34.30;99680.00;5085292;28;20040;-72
2022/06/05 08:55:11;;;;;;;16.73;6.15;;;;;;;35.53;35.12;99686.22;5087673;28;20033;-71
2022/06/05 08:57:45;;;;;;;12.77;6.28;;;;;;;35.39;34.36;99698.25;5086026;28;20044;-72
2022/06/05 09:00:29;;;;;;;15.15;5.97;;;;;;;35.18;34.92;99692.56;5082985;28;20028;-72
2022/06/05 09:03:10;;;;;;;10.68;6.32;;;;;;;34.79;35.54;99687.25;5085270;28;20033;-72
2022/06/05 09:05:45;;;;;;;11.95;5.97;;;;;;;34.87;35.45;99687.28;5094219;28;20329;-72
2022/06/05 09:08:18;;;;;;;11.63;6.32;;;;;;;35.60;34.83;99689.28;5102036;28;20118;-72
2022/06/05 09:10:49;;;;;;;14.90;6.55;;;;;;;35.27;35.17;99689.00;5105097;28;20213;-72
2022/06/05 09:13:30;;;;;;;12.10;6.00;;;;;;;35.27;34.51;99683.47;5104472;28;20040;-72
2022/06/05 09:16:02;;;;;;;12.82;5.88;;;;;;;35.50;34.04;99683.00;5100812;28;20036;-72
2022/06/05 09:18:37;;;;;;;13.65;5.95;;;;;;;35.79;34.80;99681.41;5105274;28;20067;-72
2022/06/05 09:21:12;;;;;;;9.48;6.30;;;;;;;36.25;32.43;99676.97;5104494;28;20063;-72
2022/06/05 09:23:40;;;;;;;11.73;6.25;;;;;;;36.32;33.26;99677.28;5104379;28;20036;-72
2022/06/05 09:26:08;;;;;;;9.75;5.80;;;;;;;36.19;33.37;99670.84;5104830;28;20051;-72
2022/06/05 09:28:56;;;;;;;14.40;6.32;;;;;;;36.31;32.16;99670.16;5104242;28;20241;-72
2022/06/05 09:31:40;;;;;;;11.13;5.97;;;;;;;36.64;30.82;99673.81;5104581;28;20449;-72
2022/06/05 09:34:13;;;;;;;;;;;;;;;36.14;31.67;99673.81;5100428;28;20073;-72
2022/06/05 09:36:43;;;;;;;12.20;5.80;;;;;;;35.78;33.07;99664.09;5104632;28;19923;-72
2022/06/05 09:39:28;;;;;;;11.68;5.45;;;;;;;35.80;32.89;99652.72;5104093;28;20345;-72
2022/06/05 09:42:08;;;;;;;9.73;5.22;;;;;;;35.68;32.50;99652.63;5104092;28;20028;-72
2022/06/05 09:44:54;;;;;;;10.23;5.13;;;;;;;35.84;32.06;99648.19;5097749;28;20031;-72
2022/06/05 09:47:28;;;;;;;10.20;5.72;;;;;;;35.34;31.49;99645.28;5104019;28;20035;-72
2022/06/05 09:50:01;;;;;;;13.15;5.70;;;;;;;35.53;31.01;99645.72;5103948;28;20069;-72
2022/06/05 09:52:30;;;;;;;11.65;5.85;;;;;;;35.69;31.03;99634.97;5103830;28;20035;-72
2022/06/05 09:55:28;;;;;;;10.25;5.70;;;;;;;35.74;31.81;99632.03;5103845;28;20318;-72
2022/06/05 10:00:53;;;;;;;8.68;5.50;;;;;;;35.35;30.38;99625.69;5087208;28;20070;-72
2022/06/05 10:03:24;;;;;;;13.23;5.43;;;;;;;34.86;32.25;99630.63;5082588;28;20354;-72
2022/06/05 10:06:10;;;;;;;13.13;4.88;;;;;;;34.66;32.00;99630.47;5083432;28;20036;-72
2022/06/05 10:08:42;;;;;;;6.63;4.90;;;;;;;34.37;32.78;99634.69;5084821;28;20040;-72
2022/06/05 10:11:29;;;;;;;10.40;5.32;;;;;;;34.72;31.63;99627.22;5083420;28;20218;-72
2022/06/05 10:14:26;;;;;;;11.48;5.70;;;;;;;34.41;33.40;99629.34;5083737;28;20130;-72
2022/06/05 10:17:29;;;;;;;13.23;6.07;;;;;;;34.65;33.19;99612.34;5087500;28;20036;-72
2022/06/05 10:20:04;;;;;;;10.30;5.13;;;;;;;34.72;32.02;99605.22;5096549;28;20349;-72
2022/06/05 10:22:43;;;;;;;7.35;4.97;;;;;;;34.82;32.97;99602.16;5097265;28;20391;-72
2022/06/05 10:25:24;;;;;;;10.23;4.75;;;;;;;34.75;32.84;99598.25;5082835;28;20135;-72
2022/06/05 10:27:53;;;;;;;10.60;5.68;;;;;;;35.11;31.39;99595.94;5082661;28;20044;-72
2022/06/05 10:30:20;;;;;;;10.70;4.80;;;;;;;35.33;31.48;99589.41;5084003;28;20039;-72
2022/06/05 10:33:20;;;;;;;9.75;4.78;;;;;;;35.44;30.14;99582.44;5083665;28;20514;-72
2022/06/05 10:36:08;;;;;;;10.15;4.80;;;;;;;35.13;31.24;99584.59;5083744;28;20055;-72
2022/06/05 10:39:20;;;;;;;8.95;5.28;;;;;;;35.31;30.32;99586.16;5083237;28;20040;-72
2022/06/05 10:41:52;;;;;;;11.20;5.03;;;;;;;35.06;30.82;99590.63;5049516;28;20230;-72
2022/06/05 10:44:32;;;;;;;8.50;4.90;;;;;;;34.70;30.76;99584.69;5083309;28;20069;-72
2022/06/05 10:47:27;;;;;;;14.85;4.72;;;;;;;34.30;30.90;99582.06;5083200;28;20238;-72
2022/06/05 10:50:07;;;;;;;11.65;4.53;;;;;;;34.30;31.10;99573.81;5084012;28;20052;-72
2022/06/05 10:53:03;;;;;;;8.98;4.50;;;;;;;34.40;31.38;99565.31;5084112;28;20093;-72
2022/06/05 10:55:50;;;;;;;8.52;4.22;;;;;;;34.43;32.16;99567.41;5082847;28;20247;-72
2022/06/05 10:58:34;;;;;;;6.90;4.00;;;;;;;34.17;30.95;99566.53;5082614;28;20226;-72
2022/06/05 11:01:22;;;;;;;8.73;4.25;;;;;;;34.07;31.80;99566.84;5083850;28;20035;-71
2022/06/05 11:04:14;;;;;;;8.68;4.28;;;;;;;34.29;31.24;99558.47;5060933;28;20100;-72
2022/06/05 11:06:42;;;;;;;11.30;4.43;;;;;;;34.50;30.13;99540.22;5058330;28;20040;-72
2022/06/05 11:09:26;;;;;;;6.50;3.65;;;;;;;34.65;29.95;99532.59;5082804;28;20031;-72
2022/06/05 11:15:22;;;;;;;9.52;4.47;;;;;;;35.19;29.27;99536.50;5083471;28;20026;-72
2022/06/05 11:18:04;;;;;;;10.15;3.65;;;;;;;35.23;28.86;99534.69;5084320;28;20062;-72
2022/06/05 11:20:31;;;;;;;12.20;4.00;;;;;;;34.86;28.77;99531.59;5082612;28;20095;-72
2022/06/05 11:22:56;;;;;;;11.90;4.10;;;;;;;34.67;29.49;99536.63;5096657;28;20035;-72
2022/06/05 11:25:27;;;;;;;11.60;4.38;;;;;;;34.27;29.59;99536.00;5101148;28;20028;-72
2022/06/05 11:28:22;;;;;;;7.03;4.10;;;;;;;34.14;29.62;99531.47;5084238;28;20056;-71
2022/06/05 11:31:09;;;;;;;9.70;3.65;;;;;;;34.23;30.42;99533.09;5083259;28;20123;-72
2022/06/05 11:33:53;;;;;;;6.53;3.28;;;;;;;34.35;29.33;99532.50;5080854;28;20046;-72
2022/06/05 11:36:48;;;;;;;9.15;3.63;;;;;;;34.52;28.53;99526.97;5082986;28;20096;-72
2022/06/05 11:39:22;;;;;;;8.88;3.60;;;;;;;34.55;28.70;99515.31;5070192;28;20076;-72
2022/06/05 11:41:59;;;;;;;5.95;3.47;;;;;;;34.82;28.63;99521.59;5084872;28;20273;-72
2022/06/05 11:44:42;;;;;;;6.28;3.50;;;;;;;34.82;28.23;99508.63;5082669;28;20627;-72
2022/06/05 11:47:10;;;;;;;10.75;3.50;;;;;;;35.11;28.04;99516.13;5083414;28;20057;-72
2022/06/05 11:49:48;;;;;;;10.60;3.42;;;;;;;35.24;27.46;99514.28;5081712;28;20073;-72
2022/06/05 11:52:29;;;;;;;8.32;3.22;;;;;;;35.34;27.48;99518.66;5081309;28;20048;-72
2022/06/05 11:55:09;;;;;;;8.68;3.22;;;;;;;35.46;27.05;99519.59;5082266;28;20024;-72
2022/06/05 11:57:39;;;;;;;9.35;3.40;;;;;;;35.25;27.07;99509.59;5063900;28;20047;-72
2022/06/05 12:00:15;;;;;;;10.32;3.55;;;;;;;34.74;27.26;99514.13;5085323;28;20043;-72
2022/06/05 12:03:05;;;;;;;7.70;3.00;;;;;;;34.83;28.02;99503.94;5082560;28;20557;-72
2022/06/05 12:05:58;;;;;;;6.28;3.00;;;;;;;34.99;27.34;99501.47;5080934;28;20040;-72